Kostas Dimakis — SY8782 — position and weather

sailwx.info

Track history (hours):
 
Tides and Currents Weather Stations Pressure Air Temp Water Temp Dewpoint Dewpoint Depression Visibility Wind Speed Wind Dir Waves Ship Positions

Kostas Dimakis

Last reported at 2017-Sep-20 20:02 UTC. Time now 2017-Sep-23 04:13 UTC.
Position N 37°39' E 023°44'.

Length 67 m; draft 4.8 m.

Type: Cargo ship. MMSI: 239279500.

Date/timePositionNaut miles runAvg speedWind from/ knotsBaromVisibWave heightAir tempDewpointWater temp
2017-Sep-20 20:02N 37°39' E 023°44'0 8.0
2017-Sep-20 19:59N 37°39' E 023°43'4 8.1
2017-Sep-20 19:30N 37°43' E 023°41'4 8.4
2017-Sep-20 19:00N 37°46' E 023°38'4 8.2
2017-Sep-20 18:30N 37°49' E 023°35'4 8.5
2017-Sep-20 18:00N 37°51' E 023°30'4 8.7
2017-Sep-20 17:31N 37°52' E 023°24'4 7.1
2017-Sep-20 17:00N 37°56' E 023°23'3 6.3
2017-Sep-20 16:30N 37°59' E 023°25'4 7.4
2017-Sep-20 16:00N 38°01' E 023°29'4 7.6
2017-Sep-20 15:30N 38°01' E 023°34'2 2.0
2017-Sep-20 14:38N 38°02' E 023°35'0 0.0
2017-Sep-20 13:44N 38°02' E 023°35'0 0.0
2017-Sep-20 13:30N 38°02' E 023°35'0 0.0
2017-Sep-20 12:59N 38°02' E 023°35'0 0.0
2017-Sep-20 12:22N 38°02' E 023°35'0 0.0
2017-Sep-20 12:00N 38°02' E 023°35'0 0.0
2017-Sep-20 11:30N 38°02' E 023°35'0 0.0
2017-Sep-20 10:51N 38°02' E 023°35'0 0.0
2017-Sep-20 10:29N 38°02' E 023°35'0 0.0
2017-Sep-20 09:59N 38°02' E 023°35'0 0.0
2017-Sep-20 09:28N 38°02' E 023°35'0 0.0
2017-Sep-20 09:00N 38°02' E 023°35'0 0.0
2017-Sep-20 08:15N 38°02' E 023°35'0 0.0
2017-Sep-20 08:00N 38°02' E 023°35'0 0.0
2017-Sep-20 07:30N 38°02' E 023°35'0 0.0
2017-Sep-20 06:48N 38°02' E 023°35'0 0.0
2017-Sep-20 06:31N 38°02' E 023°35'0 0.0
2017-Sep-20 06:00N 38°02' E 023°35'0 0.0
2017-Sep-20 05:30N 38°02' E 023°35'0 0.0
2017-Sep-20 05:00N 38°02' E 023°35'0 0.0
2017-Sep-20 04:30N 38°02' E 023°35'0 0.0
2017-Sep-20 03:59N 38°02' E 023°35'0 0.0
2017-Sep-20 03:28N 38°02' E 023°35'0 0.0
2017-Sep-20 03:00N 38°02' E 023°35'0 0.0
2017-Sep-20 02:18N 38°02' E 023°35'0 0.0
2017-Sep-20 01:48N 38°02' E 023°35'0 0.0
2017-Sep-20 00:08N 38°02' E 023°35'0 0.0
2017-Sep-20 00:00N 38°02' E 023°35'0 0.0
2017-Sep-19 21:40N 38°02' E 023°35'0 0.0
2017-Sep-19 20:41N 38°02' E 023°35'0 0.0
2017-Sep-19 20:30N 38°02' E 023°35'0 0.0
2017-Sep-19 20:00N 38°02' E 023°35'0 0.0
2017-Sep-19 19:30N 38°02' E 023°35'0 0.0
2017-Sep-19 18:59N 38°02' E 023°35'0 0.0
2017-Sep-19 18:30N 38°02' E 023°35'0 0.8
2017-Sep-19 18:00N 38°02' E 023°35'0 0.1
2017-Sep-19 17:30N 38°02' E 023°35'0 0.0
2017-Sep-19 17:00N 38°02' E 023°35'0 0.1
2017-Sep-19 16:30N 38°02' E 023°35'0 0.1
2017-Sep-19 16:00N 38°02' E 023°35'0 0.0
2017-Sep-19 15:30N 38°02' E 023°35'0 0.0
2017-Sep-19 15:00N 38°02' E 023°35'0 0.0
2017-Sep-19 14:30N 38°02' E 023°35'0 0.0
2017-Sep-19 14:00N 38°02' E 023°35'0 0.0
2017-Sep-19 13:30N 38°02' E 023°35'0 0.0
2017-Sep-19 13:00N 38°02' E 023°35'0 0.0
2017-Sep-19 12:30N 38°02' E 023°35'0 0.0
2017-Sep-19 12:00N 38°02' E 023°35'0 0.0
2017-Sep-19 11:30N 38°02' E 023°35'0 0.0
2017-Sep-19 11:00N 38°02' E 023°35'0 0.3
2017-Sep-19 10:29N 38°02' E 023°35'4 8.5
2017-Sep-19 10:00N 37°58' E 023°33'4 8.1
2017-Sep-19 09:30N 37°55' E 023°36'5 9.1
2017-Sep-19 09:01N 37°51' E 023°39'5 9.2
2017-Sep-19 08:31N 37°47' E 023°42'4 8.9
2017-Sep-19 08:01N 37°43' E 023°44'4 8.6
2017-Sep-19 07:30N 37°39' E 023°47'8 0.2
2017-Sep-17 19:03N 37°33' E 023°55'1 8.7
2017-Sep-17 18:57N 37°33' E 023°54'4 8.6
2017-Sep-17 18:30N 37°36' E 023°50'4 8.4
2017-Sep-17 18:00N 37°38' E 023°45'4 8.1
2017-Sep-17 17:30N 37°41' E 023°42'4 8.4
2017-Sep-17 17:00N 37°45' E 023°40'4 8.2
2017-Sep-17 16:30N 37°48' E 023°37'4 8.2
2017-Sep-17 16:00N 37°52' E 023°36'4 8.3
2017-Sep-17 15:30N 37°56' E 023°35'3 6.8
2017-Sep-17 15:00N 37°59' E 023°33'3 6.4
2017-Sep-17 14:30N 38°02' E 023°35'0 0.3
2017-Sep-17 14:01N 38°02' E 023°35'0 0.0
2017-Sep-17 13:30N 38°02' E 023°35'0 0.0
2017-Sep-17 13:00N 38°02' E 023°35'0 0.0
2017-Sep-17 12:30N 38°02' E 023°35'0 0.0
2017-Sep-17 12:00N 38°02' E 023°35'0 0.0
2017-Sep-17 11:30N 38°02' E 023°35'0 0.0
2017-Sep-17 11:00N 38°02' E 023°35'0 0.0
2017-Sep-17 10:30N 38°02' E 023°35'0 0.0
2017-Sep-17 10:00N 38°02' E 023°35'0 0.0
2017-Sep-17 09:30N 38°02' E 023°35'0 0.0
2017-Sep-17 09:00N 38°02' E 023°35'0 0.0
2017-Sep-17 08:30N 38°02' E 023°35'0 0.0
2017-Sep-17 08:01N 38°02' E 023°35'0 0.0
2017-Sep-17 07:30N 38°02' E 023°35'0 0.0
2017-Sep-17 07:00N 38°02' E 023°35'0 0.0
2017-Sep-17 06:31N 38°02' E 023°35'0 0.0
2017-Sep-17 06:00N 38°02' E 023°35'0 0.0
2017-Sep-17 05:30N 38°02' E 023°35'0 0.0
2017-Sep-17 05:00N 38°02' E 023°35'0 0.0
2017-Sep-17 04:30N 38°02' E 023°35'0 0.0
2017-Sep-17 04:01N 38°02' E 023°35'0 0.0
2017-Sep-17 03:30N 38°02' E 023°35'0 0.0
2017-Sep-17 03:00N 38°02' E 023°35'0 0.0
2017-Sep-17 02:30N 38°02' E 023°35'0 0.0
2017-Sep-17 02:00N 38°02' E 023°35'0 0.0
2017-Sep-17 01:30N 38°02' E 023°35'0 0.0
2017-Sep-17 01:00N 38°02' E 023°35'0 0.0
2017-Sep-17 00:30N 38°02' E 023°35'0 0.0
2017-Sep-17 00:00N 38°02' E 023°35'0 0.0
2017-Sep-16 23:30N 38°02' E 023°35'0 0.0
2017-Sep-16 23:00N 38°02' E 023°35'0 0.0
2017-Sep-16 22:31N 38°02' E 023°35'0 0.0
2017-Sep-16 22:00N 38°02' E 023°35'0 0.0
2017-Sep-16 21:30N 38°02' E 023°35'0 0.0
2017-Sep-16 21:00N 38°02' E 023°35'0 0.0
2017-Sep-16 20:30N 38°02' E 023°35'0 0.0
2017-Sep-16 20:00N 38°02' E 023°35'0 0.0
2017-Sep-16 19:30N 38°02' E 023°35'0 0.0
2017-Sep-16 19:00N 38°02' E 023°35'0 0.0
2017-Sep-16 18:30N 38°02' E 023°35'0 0.0
2017-Sep-16 18:00N 38°02' E 023°35'0 0.0
2017-Sep-16 17:30N 38°02' E 023°35'0 0.0
2017-Sep-16 17:00N 38°02' E 023°35'0 0.0
2017-Sep-16 16:30N 38°02' E 023°35'0 0.0
2017-Sep-16 16:00N 38°02' E 023°35'0 0.0
2017-Sep-16 15:30N 38°02' E 023°35'0 0.0
2017-Sep-16 15:00N 38°02' E 023°35'0 0.0
2017-Sep-16 14:30N 38°02' E 023°35'0 0.0
2017-Sep-16 14:00N 38°02' E 023°35'0 0.0
2017-Sep-16 13:30N 38°02' E 023°35'0 0.0
2017-Sep-16 13:00N 38°02' E 023°35'0 0.0
2017-Sep-16 12:30N 38°02' E 023°35'0 0.0
2017-Sep-16 12:01N 38°02' E 023°35'0 0.0
2017-Sep-16 11:30N 38°02' E 023°35'0 0.0
2017-Sep-16 11:01N 38°02' E 023°35'0 0.0
2017-Sep-16 10:30N 38°02' E 023°35'0 0.0
2017-Sep-16 10:00N 38°02' E 023°35'0 0.0
2017-Sep-16 09:30N 38°02' E 023°35'0 0.0
2017-Sep-16 08:55N 38°02' E 023°35'0 0.0
2017-Sep-16 08:30N 38°02' E 023°35'0 0.0
2017-Sep-16 08:00N 38°02' E 023°35'0 0.0
2017-Sep-16 07:30N 38°02' E 023°35'0 0.0
2017-Sep-16 07:00N 38°02' E 023°35'0 0.0
2017-Sep-16 06:30N 38°02' E 023°35'0 0.0
2017-Sep-16 05:59N 38°02' E 023°35'0 0.0
2017-Sep-16 05:30N 38°02' E 023°35'0 0.0
2017-Sep-16 05:00N 38°02' E 023°35'0 0.0
2017-Sep-16 04:30N 38°02' E 023°35'0 0.0
2017-Sep-16 03:50N 38°02' E 023°35'0 0.0
2017-Sep-16 03:30N 38°02' E 023°35'0 0.0
2017-Sep-16 02:49N 38°02' E 023°35'0 0.0
2017-Sep-16 02:24N 38°02' E 023°35'0 0.0
2017-Sep-16 01:51N 38°02' E 023°35'0 0.0
2017-Sep-16 01:13N 38°02' E 023°35'0 0.0
2017-Sep-16 00:19N 38°02' E 023°35'0 0.0
2017-Sep-15 23:59N 38°02' E 023°35'0 0.0
2017-Sep-15 21:17N 38°02' E 023°35'0 0.0
2017-Sep-15 20:47N 38°02' E 023°35'0 0.0
2017-Sep-15 18:43N 38°02' E 023°35'0 0.0
2017-Sep-15 18:19N 38°02' E 023°35'0 0.0
2017-Sep-15 18:00N 38°02' E 023°35'0 0.0
2017-Sep-15 17:29N 38°02' E 023°35'0 0.0
2017-Sep-15 17:00N 38°02' E 023°35'0 0.0
2017-Sep-15 16:30N 38°02' E 023°35'0 0.0
2017-Sep-15 16:00N 38°02' E 023°35'0 0.0
2017-Sep-15 15:31N 38°02' E 023°35'0 0.0
2017-Sep-15 15:00N 38°02' E 023°35'0 0.0
2017-Sep-15 14:30N 38°02' E 023°35'0 0.0
2017-Sep-15 13:49N 38°02' E 023°35'0 0.0
2017-Sep-15 13:30N 38°02' E 023°35'0 0.0
2017-Sep-15 13:00N 38°02' E 023°35'0 0.0
2017-Sep-15 12:30N 38°02' E 023°35'0 0.0
2017-Sep-15 12:00N 38°02' E 023°35'0 0.0
2017-Sep-15 11:30N 38°02' E 023°35'0 0.0
2017-Sep-15 11:00N 38°02' E 023°35'0 0.0
2017-Sep-15 10:30N 38°02' E 023°35'0 0.0
2017-Sep-15 10:00N 38°02' E 023°35'0 0.0
2017-Sep-15 09:28N 38°02' E 023°35'0 0.0
2017-Sep-15 08:56N 38°02' E 023°35'0 0.0
2017-Sep-15 08:29N 38°02' E 023°35'0 0.0
2017-Sep-15 08:00N 38°02' E 023°35'0 0.0
2017-Sep-15 07:30N 38°02' E 023°35'0 0.0
2017-Sep-15 07:00N 38°02' E 023°35'0 0.0
2017-Sep-15 06:25N 38°02' E 023°35'0 0.0
2017-Sep-15 05:58N 38°02' E 023°35'0 0.0
2017-Sep-15 05:12N 38°02' E 023°35'0 0.0
2017-Sep-15 04:58N 38°02' E 023°35'0 0.0
2017-Sep-15 03:28N 38°02' E 023°35'0 0.0
2017-Sep-15 02:59N 38°02' E 023°35'0 0.0
2017-Sep-15 02:03N 38°02' E 023°35'0 0.0
2017-Sep-15 01:56N 38°02' E 023°35'0 0.0
2017-Sep-15 01:30N 38°02' E 023°35'0 0.0
2017-Sep-15 01:00N 38°02' E 023°35'0 0.0
2017-Sep-15 00:30N 38°02' E 023°35'0 0.0
2017-Sep-14 23:58N 38°02' E 023°35'0 0.0
2017-Sep-14 23:30N 38°02' E 023°35'0 0.0
2017-Sep-14 23:00N 38°02' E 023°35'0 0.0
2017-Sep-14 22:29N 38°02' E 023°35'0 0.0
2017-Sep-14 21:20N 38°02' E 023°35'0 0.0
2017-Sep-14 20:49N 38°02' E 023°35'0 0.0
2017-Sep-14 20:28N 38°02' E 023°35'0 0.0
2017-Sep-14 19:59N 38°02' E 023°35'0 0.0
2017-Sep-14 19:30N 38°02' E 023°35'0 0.0
2017-Sep-14 18:58N 38°02' E 023°35'0 0.0
2017-Sep-14 18:28N 38°02' E 023°35'0 0.0
2017-Sep-14 18:00N 38°02' E 023°35'0 0.0
2017-Sep-14 17:30N 38°02' E 023°35'0 0.0
2017-Sep-14 17:00N 38°02' E 023°35'0 0.0
2017-Sep-14 16:29N 38°02' E 023°35'0 0.0
2017-Sep-14 16:00N 38°02' E 023°35'0 0.0
2017-Sep-14 15:30N 38°02' E 023°35'0 0.0
2017-Sep-14 15:00N 38°02' E 023°35'0 0.0
2017-Sep-14 14:30N 38°02' E 023°35'0 0.0
2017-Sep-14 14:00N 38°02' E 023°35'0 0.0
2017-Sep-14 13:30N 38°02' E 023°35'0 0.0
2017-Sep-14 13:00N 38°02' E 023°35'0 0.0
2017-Sep-14 12:30N 38°02' E 023°35'0 0.0
2017-Sep-14 12:00N 38°02' E 023°35'0 0.0
2017-Sep-14 11:30N 38°02' E 023°35'1 2.1
2017-Sep-14 11:00N 38°01' E 023°35'4 7.9
2017-Sep-14 10:30N 37°58' E 023°33'4 7.5
2017-Sep-14 10:00N 37°55' E 023°36'4 8.3
2017-Sep-14 09:30N 37°51' E 023°39'4 8.0
2017-Sep-14 09:00N 37°48' E 023°41'4 7.7
2017-Sep-14 08:30N 37°44' E 023°43'4 7.7
2017-Sep-14 07:58N 37°40' E 023°46'141 3.9
2017-Sep-12 20:02N 35°24' E 024°32'0 9.5
2017-Sep-12 20:00N 35°24' E 024°32'3 6.5
2017-Sep-12 19:31N 35°22' E 024°29'0 0.0
2017-Sep-12 19:00N 35°22' E 024°29'0 0.0
2017-Sep-12 18:30N 35°22' E 024°29'0 0.0
2017-Sep-12 18:00N 35°22' E 024°29'0 0.0
2017-Sep-12 17:30N 35°22' E 024°29'0 0.0
2017-Sep-12 17:00N 35°22' E 024°29'0 0.0
2017-Sep-12 16:30N 35°22' E 024°29'0 0.0
2017-Sep-12 16:00N 35°22' E 024°29'0 0.0
2017-Sep-12 15:31N 35°22' E 024°29'0 0.0
2017-Sep-12 15:00N 35°22' E 024°29'0 0.0
2017-Sep-12 14:31N 35°22' E 024°29'0 0.0
2017-Sep-12 14:01N 35°22' E 024°29'0 0.0
2017-Sep-12 13:31N 35°22' E 024°29'0 0.0
2017-Sep-12 13:00N 35°22' E 024°29'0 0.0
2017-Sep-12 12:31N 35°22' E 024°29'0 0.0
2017-Sep-12 12:00N 35°22' E 024°29'0 0.0
2017-Sep-12 11:30N 35°22' E 024°29'0 0.0
2017-Sep-12 11:00N 35°22' E 024°29'0 0.0
2017-Sep-12 10:30N 35°22' E 024°29'0 0.0
2017-Sep-12 10:01N 35°22' E 024°29'0 0.0
2017-Sep-12 09:31N 35°22' E 024°29'0 0.0
2017-Sep-12 09:00N 35°22' E 024°29'0 0.0
2017-Sep-12 08:30N 35°22' E 024°29'0 0.0
2017-Sep-12 08:00N 35°22' E 024°29'0 0.0
2017-Sep-12 07:31N 35°22' E 024°29'1 2.2
2017-Sep-12 07:01N 35°23' E 024°29'4 8.2
2017-Sep-12 06:31N 35°27' E 024°29'102 7.6
2017-Sep-11 17:09N 37°06' E 023°58'31 7.6
2017-Sep-11 13:04N 37°35' E 023°44'1 8.0
2017-Sep-11 12:59N 37°36' E 023°44'4 7.9
2017-Sep-11 12:30N 37°39' E 023°42'4 7.9
2017-Sep-11 12:00N 37°43' E 023°41'4 8.0
2017-Sep-11 11:30N 37°47' E 023°39'4 8.1
2017-Sep-11 11:00N 37°50' E 023°37'4 8.2
2017-Sep-11 10:30N 37°54' E 023°35'3 6.7
2017-Sep-11 10:00N 37°57' E 023°33'4 7.4
2017-Sep-11 09:30N 38°01' E 023°34'2 2.9
2017-Sep-11 08:58N 38°02' E 023°35'0 0.1
2017-Sep-11 08:30N 38°02' E 023°35'0 0.1
2017-Sep-11 07:54N 38°02' E 023°35'0 0.0
2017-Sep-11 07:24N 38°02' E 023°35'0 0.0
2017-Sep-11 05:21N 38°02' E 023°35'0 0.0
2017-Sep-11 04:53N 38°02' E 023°35'0 0.0
2017-Sep-11 04:23N 38°02' E 023°35'0 0.0
2017-Sep-11 02:45N 38°02' E 023°35'0 0.0
2017-Sep-11 01:10N 38°02' E 023°35'0 0.0
2017-Sep-11 01:00N 38°02' E 023°35'0 0.0
2017-Sep-11 00:18N 38°02' E 023°35'0 0.0
2017-Sep-10 20:36N 38°02' E 023°35'  
Track history (hours):
 
Tides and Currents Weather Stations Pressure Air Temp Water Temp Dewpoint Dewpoint Depression Visibility Wind Speed Wind Dir Waves Ship Positions

Kostas Dimakis

Last reported at 2017-Sep-20 20:02 UTC. Time now 2017-Sep-23 04:13 UTC.
Position N 37°39' E 023°44'.

Length 67 m; draft 4.8 m.

Type: Cargo ship. MMSI: 239279500.

Date/timePositionNaut miles runAvg speedWind from/ knotsBaromVisibWave heightAir tempDewpointWater temp
2017-Sep-20 20:02N 37°39' E 023°44'0 8.0
2017-Sep-20 19:59N 37°39' E 023°43'4 8.1
2017-Sep-20 19:30N 37°43' E 023°41'4 8.4
2017-Sep-20 19:00N 37°46' E 023°38'4 8.2
2017-Sep-20 18:30N 37°49' E 023°35'4 8.5
2017-Sep-20 18:00N 37°51' E 023°30'4 8.7
2017-Sep-20 17:31N 37°52' E 023°24'4 7.1
2017-Sep-20 17:00N 37°56' E 023°23'3 6.3
2017-Sep-20 16:30N 37°59' E 023°25'4 7.4
2017-Sep-20 16:00N 38°01' E 023°29'4 7.6
2017-Sep-20 15:30N 38°01' E 023°34'2 2.0
2017-Sep-20 14:38N 38°02' E 023°35'0 0.0
2017-Sep-20 13:44N 38°02' E 023°35'0 0.0
2017-Sep-20 13:30N 38°02' E 023°35'0 0.0
2017-Sep-20 12:59N 38°02' E 023°35'0 0.0
2017-Sep-20 12:22N 38°02' E 023°35'0 0.0
2017-Sep-20 12:00N 38°02' E 023°35'0 0.0
2017-Sep-20 11:30N 38°02' E 023°35'0 0.0
2017-Sep-20 10:51N 38°02' E 023°35'0 0.0
2017-Sep-20 10:29N 38°02' E 023°35'0 0.0
2017-Sep-20 09:59N 38°02' E 023°35'0 0.0
2017-Sep-20 09:28N 38°02' E 023°35'0 0.0
2017-Sep-20 09:00N 38°02' E 023°35'0 0.0
2017-Sep-20 08:15N 38°02' E 023°35'0 0.0
2017-Sep-20 08:00N 38°02' E 023°35'0 0.0
2017-Sep-20 07:30N 38°02' E 023°35'0 0.0
2017-Sep-20 06:48N 38°02' E 023°35'0 0.0
2017-Sep-20 06:31N 38°02' E 023°35'0 0.0
2017-Sep-20 06:00N 38°02' E 023°35'0 0.0
2017-Sep-20 05:30N 38°02' E 023°35'0 0.0
2017-Sep-20 05:00N 38°02' E 023°35'0 0.0
2017-Sep-20 04:30N 38°02' E 023°35'0 0.0
2017-Sep-20 03:59N 38°02' E 023°35'0 0.0
2017-Sep-20 03:28N 38°02' E 023°35'0 0.0
2017-Sep-20 03:00N 38°02' E 023°35'0 0.0
2017-Sep-20 02:18N 38°02' E 023°35'0 0.0
2017-Sep-20 01:48N 38°02' E 023°35'0 0.0
2017-Sep-20 00:08N 38°02' E 023°35'0 0.0
2017-Sep-20 00:00N 38°02' E 023°35'0 0.0
2017-Sep-19 21:40N 38°02' E 023°35'0 0.0
2017-Sep-19 20:41N 38°02' E 023°35'0 0.0
2017-Sep-19 20:30N 38°02' E 023°35'0 0.0
2017-Sep-19 20:00N 38°02' E 023°35'0 0.0
2017-Sep-19 19:30N 38°02' E 023°35'0 0.0
2017-Sep-19 18:59N 38°02' E 023°35'0 0.0
2017-Sep-19 18:30N 38°02' E 023°35'0 0.8
2017-Sep-19 18:00N 38°02' E 023°35'0 0.1
2017-Sep-19 17:30N 38°02' E 023°35'0 0.0
2017-Sep-19 17:00N 38°02' E 023°35'0 0.1
2017-Sep-19 16:30N 38°02' E 023°35'0 0.1
2017-Sep-19 16:00N 38°02' E 023°35'0 0.0
2017-Sep-19 15:30N 38°02' E 023°35'0 0.0
2017-Sep-19 15:00N 38°02' E 023°35'0 0.0
2017-Sep-19 14:30N 38°02' E 023°35'0 0.0
2017-Sep-19 14:00N 38°02' E 023°35'0 0.0
2017-Sep-19 13:30N 38°02' E 023°35'0 0.0
2017-Sep-19 13:00N 38°02' E 023°35'0 0.0
2017-Sep-19 12:30N 38°02' E 023°35'0 0.0
2017-Sep-19 12:00N 38°02' E 023°35'0 0.0
2017-Sep-19 11:30N 38°02' E 023°35'0 0.0
2017-Sep-19 11:00N 38°02' E 023°35'0 0.3
2017-Sep-19 10:29N 38°02' E 023°35'4 8.5
2017-Sep-19 10:00N 37°58' E 023°33'4 8.1
2017-Sep-19 09:30N 37°55' E 023°36'5 9.1
2017-Sep-19 09:01N 37°51' E 023°39'5 9.2
2017-Sep-19 08:31N 37°47' E 023°42'4 8.9
2017-Sep-19 08:01N 37°43' E 023°44'4 8.6
2017-Sep-19 07:30N 37°39' E 023°47'8 0.2
2017-Sep-17 19:03N 37°33' E 023°55'1 8.7
2017-Sep-17 18:57N 37°33' E 023°54'4 8.6
2017-Sep-17 18:30N 37°36' E 023°50'4 8.4
2017-Sep-17 18:00N 37°38' E 023°45'4 8.1
2017-Sep-17 17:30N 37°41' E 023°42'4 8.4
2017-Sep-17 17:00N 37°45' E 023°40'4 8.2
2017-Sep-17 16:30N 37°48' E 023°37'4 8.2
2017-Sep-17 16:00N 37°52' E 023°36'4 8.3
2017-Sep-17 15:30N 37°56' E 023°35'3 6.8
2017-Sep-17 15:00N 37°59' E 023°33'3 6.4
2017-Sep-17 14:30N 38°02' E 023°35'0 0.3
2017-Sep-17 14:01N 38°02' E 023°35'0 0.0
2017-Sep-17 13:30N 38°02' E 023°35'0 0.0
2017-Sep-17 13:00N 38°02' E 023°35'0 0.0
2017-Sep-17 12:30N 38°02' E 023°35'0 0.0
2017-Sep-17 12:00N 38°02' E 023°35'0 0.0
2017-Sep-17 11:30N 38°02' E 023°35'0 0.0
2017-Sep-17 11:00N 38°02' E 023°35'0 0.0
2017-Sep-17 10:30N 38°02' E 023°35'0 0.0
2017-Sep-17 10:00N 38°02' E 023°35'0 0.0
2017-Sep-17 09:30N 38°02' E 023°35'0 0.0
2017-Sep-17 09:00N 38°02' E 023°35'0 0.0
2017-Sep-17 08:30N 38°02' E 023°35'0 0.0
2017-Sep-17 08:01N 38°02' E 023°35'0 0.0
2017-Sep-17 07:30N 38°02' E 023°35'0 0.0
2017-Sep-17 07:00N 38°02' E 023°35'0 0.0
2017-Sep-17 06:31N 38°02' E 023°35'0 0.0
2017-Sep-17 06:00N 38°02' E 023°35'0 0.0
2017-Sep-17 05:30N 38°02' E 023°35'0 0.0
2017-Sep-17 05:00N 38°02' E 023°35'0 0.0
2017-Sep-17 04:30N 38°02' E 023°35'0 0.0
2017-Sep-17 04:01N 38°02' E 023°35'0 0.0
2017-Sep-17 03:30N 38°02' E 023°35'0 0.0
2017-Sep-17 03:00N 38°02' E 023°35'0 0.0
2017-Sep-17 02:30N 38°02' E 023°35'0 0.0
2017-Sep-17 02:00N 38°02' E 023°35'0 0.0
2017-Sep-17 01:30N 38°02' E 023°35'0 0.0
2017-Sep-17 01:00N 38°02' E 023°35'0 0.0
2017-Sep-17 00:30N 38°02' E 023°35'0 0.0
2017-Sep-17 00:00N 38°02' E 023°35'0 0.0
2017-Sep-16 23:30N 38°02' E 023°35'0 0.0
2017-Sep-16 23:00N 38°02' E 023°35'0 0.0
2017-Sep-16 22:31N 38°02' E 023°35'0 0.0
2017-Sep-16 22:00N 38°02' E 023°35'0 0.0
2017-Sep-16 21:30N 38°02' E 023°35'0 0.0
2017-Sep-16 21:00N 38°02' E 023°35'0 0.0
2017-Sep-16 20:30N 38°02' E 023°35'0 0.0
2017-Sep-16 20:00N 38°02' E 023°35'0 0.0
2017-Sep-16 19:30N 38°02' E 023°35'0 0.0
2017-Sep-16 19:00N 38°02' E 023°35'0 0.0
2017-Sep-16 18:30N 38°02' E 023°35'0 0.0
2017-Sep-16 18:00N 38°02' E 023°35'0 0.0
2017-Sep-16 17:30N 38°02' E 023°35'0 0.0
2017-Sep-16 17:00N 38°02' E 023°35'0 0.0
2017-Sep-16 16:30N 38°02' E 023°35'0 0.0
2017-Sep-16 16:00N 38°02' E 023°35'0 0.0
2017-Sep-16 15:30N 38°02' E 023°35'0 0.0
2017-Sep-16 15:00N 38°02' E 023°35'0 0.0
2017-Sep-16 14:30N 38°02' E 023°35'0 0.0
2017-Sep-16 14:00N 38°02' E 023°35'0 0.0
2017-Sep-16 13:30N 38°02' E 023°35'0 0.0
2017-Sep-16 13:00N 38°02' E 023°35'0 0.0
2017-Sep-16 12:30N 38°02' E 023°35'0 0.0
2017-Sep-16 12:01N 38°02' E 023°35'0 0.0
2017-Sep-16 11:30N 38°02' E 023°35'0 0.0
2017-Sep-16 11:01N 38°02' E 023°35'0 0.0
2017-Sep-16 10:30N 38°02' E 023°35'0 0.0
2017-Sep-16 10:00N 38°02' E 023°35'0 0.0
2017-Sep-16 09:30N 38°02' E 023°35'0 0.0
2017-Sep-16 08:55N 38°02' E 023°35'0 0.0
2017-Sep-16 08:30N 38°02' E 023°35'0 0.0
2017-Sep-16 08:00N 38°02' E 023°35'0 0.0
2017-Sep-16 07:30N 38°02' E 023°35'0 0.0
2017-Sep-16 07:00N 38°02' E 023°35'0 0.0
2017-Sep-16 06:30N 38°02' E 023°35'0 0.0
2017-Sep-16 05:59N 38°02' E 023°35'0 0.0
2017-Sep-16 05:30N 38°02' E 023°35'0 0.0
2017-Sep-16 05:00N 38°02' E 023°35'0 0.0
2017-Sep-16 04:30N 38°02' E 023°35'0 0.0
2017-Sep-16 03:50N 38°02' E 023°35'0 0.0
2017-Sep-16 03:30N 38°02' E 023°35'0 0.0
2017-Sep-16 02:49N 38°02' E 023°35'0 0.0
2017-Sep-16 02:24N 38°02' E 023°35'0 0.0
2017-Sep-16 01:51N 38°02' E 023°35'0 0.0
2017-Sep-16 01:13N 38°02' E 023°35'0 0.0
2017-Sep-16 00:19N 38°02' E 023°35'0 0.0
2017-Sep-15 23:59N 38°02' E 023°35'0 0.0
2017-Sep-15 21:17N 38°02' E 023°35'0 0.0
2017-Sep-15 20:47N 38°02' E 023°35'0 0.0
2017-Sep-15 18:43N 38°02' E 023°35'0 0.0
2017-Sep-15 18:19N 38°02' E 023°35'0 0.0
2017-Sep-15 18:00N 38°02' E 023°35'0 0.0
2017-Sep-15 17:29N 38°02' E 023°35'0 0.0
2017-Sep-15 17:00N 38°02' E 023°35'0 0.0
2017-Sep-15 16:30N 38°02' E 023°35'0 0.0
2017-Sep-15 16:00N 38°02' E 023°35'0 0.0
2017-Sep-15 15:31N 38°02' E 023°35'0 0.0
2017-Sep-15 15:00N 38°02' E 023°35'0 0.0
2017-Sep-15 14:30N 38°02' E 023°35'0 0.0
2017-Sep-15 13:49N 38°02' E 023°35'0 0.0
2017-Sep-15 13:30N 38°02' E 023°35'0 0.0
2017-Sep-15 13:00N 38°02' E 023°35'0 0.0
2017-Sep-15 12:30N 38°02' E 023°35'0 0.0
2017-Sep-15 12:00N 38°02' E 023°35'0 0.0
2017-Sep-15 11:30N 38°02' E 023°35'0 0.0
2017-Sep-15 11:00N 38°02' E 023°35'0 0.0
2017-Sep-15 10:30N 38°02' E 023°35'0 0.0
2017-Sep-15 10:00N 38°02' E 023°35'0 0.0
2017-Sep-15 09:28N 38°02' E 023°35'0 0.0
2017-Sep-15 08:56N 38°02' E 023°35'0 0.0
2017-Sep-15 08:29N 38°02' E 023°35'0 0.0
2017-Sep-15 08:00N 38°02' E 023°35'0 0.0
2017-Sep-15 07:30N 38°02' E 023°35'0 0.0
2017-Sep-15 07:00N 38°02' E 023°35'0 0.0
2017-Sep-15 06:25N 38°02' E 023°35'0 0.0
2017-Sep-15 05:58N 38°02' E 023°35'0 0.0
2017-Sep-15 05:12N 38°02' E 023°35'0 0.0
2017-Sep-15 04:58N 38°02' E 023°35'0 0.0
2017-Sep-15 03:28N 38°02' E 023°35'0 0.0
2017-Sep-15 02:59N 38°02' E 023°35'0 0.0
2017-Sep-15 02:03N 38°02' E 023°35'0 0.0
2017-Sep-15 01:56N 38°02' E 023°35'0 0.0
2017-Sep-15 01:30N 38°02' E 023°35'0 0.0
2017-Sep-15 01:00N 38°02' E 023°35'0 0.0
2017-Sep-15 00:30N 38°02' E 023°35'0 0.0
2017-Sep-14 23:58N 38°02' E 023°35'0 0.0
2017-Sep-14 23:30N 38°02' E 023°35'0 0.0
2017-Sep-14 23:00N 38°02' E 023°35'0 0.0
2017-Sep-14 22:29N 38°02' E 023°35'0 0.0
2017-Sep-14 21:20N 38°02' E 023°35'0 0.0
2017-Sep-14 20:49N 38°02' E 023°35'0 0.0
2017-Sep-14 20:28N 38°02' E 023°35'0 0.0
2017-Sep-14 19:59N 38°02' E 023°35'0 0.0
2017-Sep-14 19:30N 38°02' E 023°35'0 0.0
2017-Sep-14 18:58N 38°02' E 023°35'0 0.0
2017-Sep-14 18:28N 38°02' E 023°35'0 0.0
2017-Sep-14 18:00N 38°02' E 023°35'0 0.0
2017-Sep-14 17:30N 38°02' E 023°35'0 0.0
2017-Sep-14 17:00N 38°02' E 023°35'0 0.0
2017-Sep-14 16:29N 38°02' E 023°35'0 0.0
2017-Sep-14 16:00N 38°02' E 023°35'0 0.0
2017-Sep-14 15:30N 38°02' E 023°35'0 0.0
2017-Sep-14 15:00N 38°02' E 023°35'0 0.0
2017-Sep-14 14:30N 38°02' E 023°35'0 0.0
2017-Sep-14 14:00N 38°02' E 023°35'0 0.0
2017-Sep-14 13:30N 38°02' E 023°35'0 0.0
2017-Sep-14 13:00N 38°02' E 023°35'0 0.0
2017-Sep-14 12:30N 38°02' E 023°35'0 0.0
2017-Sep-14 12:00N 38°02' E 023°35'0 0.0
2017-Sep-14 11:30N 38°02' E 023°35'1 2.1
2017-Sep-14 11:00N 38°01' E 023°35'4 7.9
2017-Sep-14 10:30N 37°58' E 023°33'4 7.5
2017-Sep-14 10:00N 37°55' E 023°36'4 8.3
2017-Sep-14 09:30N 37°51' E 023°39'4 8.0
2017-Sep-14 09:00N 37°48' E 023°41'4 7.7
2017-Sep-14 08:30N 37°44' E 023°43'4 7.7
2017-Sep-14 07:58N 37°40' E 023°46'141 3.9
2017-Sep-12 20:02N 35°24' E 024°32'0 9.5
2017-Sep-12 20:00N 35°24' E 024°32'3 6.5
2017-Sep-12 19:31N 35°22' E 024°29'0 0.0
2017-Sep-12 19:00N 35°22' E 024°29'0 0.0
2017-Sep-12 18:30N 35°22' E 024°29'0 0.0
2017-Sep-12 18:00N 35°22' E 024°29'0 0.0
2017-Sep-12 17:30N 35°22' E 024°29'0 0.0
2017-Sep-12 17:00N 35°22' E 024°29'0 0.0
2017-Sep-12 16:30N 35°22' E 024°29'0 0.0
2017-Sep-12 16:00N 35°22' E 024°29'0 0.0
2017-Sep-12 15:31N 35°22' E 024°29'0 0.0
2017-Sep-12 15:00N 35°22' E 024°29'0 0.0
2017-Sep-12 14:31N 35°22' E 024°29'0 0.0
2017-Sep-12 14:01N 35°22' E 024°29'0 0.0
2017-Sep-12 13:31N 35°22' E 024°29'0 0.0
2017-Sep-12 13:00N 35°22' E 024°29'0 0.0
2017-Sep-12 12:31N 35°22' E 024°29'0 0.0
2017-Sep-12 12:00N 35°22' E 024°29'0 0.0
2017-Sep-12 11:30N 35°22' E 024°29'0 0.0
2017-Sep-12 11:00N 35°22' E 024°29'0 0.0
2017-Sep-12 10:30N 35°22' E 024°29'0 0.0
2017-Sep-12 10:01N 35°22' E 024°29'0 0.0
2017-Sep-12 09:31N 35°22' E 024°29'0 0.0
2017-Sep-12 09:00N 35°22' E 024°29'0 0.0
2017-Sep-12 08:30N 35°22' E 024°29'0 0.0
2017-Sep-12 08:00N 35°22' E 024°29'0 0.0
2017-Sep-12 07:31N 35°22' E 024°29'1 2.2
2017-Sep-12 07:01N 35°23' E 024°29'4 8.2
2017-Sep-12 06:31N 35°27' E 024°29'102 7.6
2017-Sep-11 17:09N 37°06' E 023°58'31 7.6
2017-Sep-11 13:04N 37°35' E 023°44'1 8.0
2017-Sep-11 12:59N 37°36' E 023°44'4 7.9
2017-Sep-11 12:30N 37°39' E 023°42'4 7.9
2017-Sep-11 12:00N 37°43' E 023°41'4 8.0
2017-Sep-11 11:30N 37°47' E 023°39'4 8.1
2017-Sep-11 11:00N 37°50' E 023°37'4 8.2
2017-Sep-11 10:30N 37°54' E 023°35'3 6.7
2017-Sep-11 10:00N 37°57' E 023°33'4 7.4
2017-Sep-11 09:30N 38°01' E 023°34'2 2.9
2017-Sep-11 08:58N 38°02' E 023°35'0 0.1
2017-Sep-11 08:30N 38°02' E 023°35'0 0.1
2017-Sep-11 07:54N 38°02' E 023°35'0 0.0
2017-Sep-11 07:24N 38°02' E 023°35'0 0.0
2017-Sep-11 05:21N 38°02' E 023°35'0 0.0
2017-Sep-11 04:53N 38°02' E 023°35'0 0.0
2017-Sep-11 04:23N 38°02' E 023°35'0 0.0
2017-Sep-11 02:45N 38°02' E 023°35'0 0.0
2017-Sep-11 01:10N 38°02' E 023°35'0 0.0
2017-Sep-11 01:00N 38°02' E 023°35'0 0.0
2017-Sep-11 00:18N 38°02' E 023°35'0 0.0
2017-Sep-10 20:36N 38°02' E 023°35'  

Dump ship's entire track history